sensor_id;sensor_type;location;lat;lon;timestamp;temperature;humidity
22734;DHT22;11534;51.994;5.692;2023-08-06T00:00:21;15.90;99.90
22734;DHT22;11534;51.994;5.692;2023-08-06T00:02:47;15.90;99.90
22734;DHT22;11534;51.994;5.692;2023-08-06T00:05:12;15.80;99.90
22734;DHT22;11534;51.994;5.692;2023-08-06T00:07:38;15.80;99.90
22734;DHT22;11534;51.994;5.692;2023-08-06T00:10:04;15.80;99.90
22734;DHT22;11534;51.994;5.692;2023-08-06T00:12:30;15.80;99.90
22734;DHT22;11534;51.994;5.692;2023-08-06T00:14:56;15.80;99.90
22734;DHT22;11534;51.994;5.692;2023-08-06T00:17:21;15.80;99.90
22734;DHT22;11534;51.994;5.692;2023-08-06T00:19:47;15.80;99.90
22734;DHT22;11534;51.994;5.692;2023-08-06T00:22:13;15.80;99.90
22734;DHT22;11534;51.994;5.692;2023-08-06T00:24:38;15.80;99.90
22734;DHT22;11534;51.994;5.692;2023-08-06T00:27:04;15.80;99.90
22734;DHT22;11534;51.994;5.692;2023-08-06T00:29:30;15.80;99.90
22734;DHT22;11534;51.994;5.692;2023-08-06T00:31:56;15.90;99.90
22734;DHT22;11534;51.994;5.692;2023-08-06T00:34:21;15.90;99.90
22734;DHT22;11534;51.994;5.692;2023-08-06T00:36:47;15.90;99.90
22734;DHT22;11534;51.994;5.692;2023-08-06T00:39:13;15.80;99.90
22734;DHT22;11534;51.994;5.692;2023-08-06T00:41:39;15.80;99.90
22734;DHT22;11534;51.994;5.692;2023-08-06T00:44:04;15.80;99.90
22734;DHT22;11534;51.994;5.692;2023-08-06T00:46:32;15.80;99.90
22734;DHT22;11534;51.994;5.692;2023-08-06T00:48:57;15.80;99.90
22734;DHT22;11534;51.994;5.692;2023-08-06T00:51:24;15.90;99.90
22734;DHT22;11534;51.994;5.692;2023-08-06T00:53:52;15.90;99.90
22734;DHT22;11534;51.994;5.692;2023-08-06T00:56:19;15.90;99.90
22734;DHT22;11534;51.994;5.692;2023-08-06T00:58:45;15.90;99.90
22734;DHT22;11534;51.994;5.692;2023-08-06T01:01:11;15.90;99.90
22734;DHT22;11534;51.994;5.692;2023-08-06T01:03:37;15.90;99.90
22734;DHT22;11534;51.994;5.692;2023-08-06T01:06:02;15.80;99.90
22734;DHT22;11534;51.994;5.692;2023-08-06T01:08:56;15.90;99.90
22734;DHT22;11534;51.994;5.692;2023-08-06T01:11:38;15.90;99.90
22734;DHT22;11534;51.994;5.692;2023-08-06T01:14:15;15.90;99.90
22734;DHT22;11534;51.994;5.692;2023-08-06T01:16:44;15.90;99.90
22734;DHT22;11534;51.994;5.692;2023-08-06T01:19:19;15.90;99.90
22734;DHT22;11534;51.994;5.692;2023-08-06T01:21:45;15.80;99.90
22734;DHT22;11534;51.994;5.692;2023-08-06T01:24:11;15.80;99.90
22734;DHT22;11534;51.994;5.692;2023-08-06T01:26:43;15.80;99.90
22734;DHT22;11534;51.994;5.692;2023-08-06T01:31:39;15.80;99.90
22734;DHT22;11534;51.994;5.692;2023-08-06T01:34:07;15.80;99.90
22734;DHT22;11534;51.994;5.692;2023-08-06T01:36:35;15.80;99.90
22734;DHT22;11534;51.994;5.692;2023-08-06T01:39:00;15.80;99.90
22734;DHT22;11534;51.994;5.692;2023-08-06T01:41:26;15.90;99.90
22734;DHT22;11534;51.994;5.692;2023-08-06T01:43:52;15.90;99.90
22734;DHT22;11534;51.994;5.692;2023-08-06T01:46:17;15.90;99.90
22734;DHT22;11534;51.994;5.692;2023-08-06T01:48:43;15.90;99.90
22734;DHT22;11534;51.994;5.692;2023-08-06T01:51:09;15.80;99.90
22734;DHT22;11534;51.994;5.692;2023-08-06T01:53:34;15.80;99.90
22734;DHT22;11534;51.994;5.692;2023-08-06T01:56:00;15.80;99.90
22734;DHT22;11534;51.994;5.692;2023-08-06T01:58:26;15.80;99.90
22734;DHT22;11534;51.994;5.692;2023-08-06T02:00:51;15.80;99.90
22734;DHT22;11534;51.994;5.692;2023-08-06T02:03:17;15.80;99.90
22734;DHT22;11534;51.994;5.692;2023-08-06T02:05:42;15.70;99.90
22734;DHT22;11534;51.994;5.692;2023-08-06T02:08:08;15.80;99.90
22734;DHT22;11534;51.994;5.692;2023-08-06T02:10:34;15.70;99.90
22734;DHT22;11534;51.994;5.692;2023-08-06T02:12:59;15.70;99.90
22734;DHT22;11534;51.994;5.692;2023-08-06T02:15:25;15.80;99.90
22734;DHT22;11534;51.994;5.692;2023-08-06T02:17:51;15.70;99.90
22734;DHT22;11534;51.994;5.692;2023-08-06T02:20:16;15.70;99.90
22734;DHT22;11534;51.994;5.692;2023-08-06T02:22:42;15.80;99.90
22734;DHT22;11534;51.994;5.692;2023-08-06T02:25:08;15.80;99.90
22734;DHT22;11534;51.994;5.692;2023-08-06T02:27:33;15.80;99.90
22734;DHT22;11534;51.994;5.692;2023-08-06T02:29:59;15.80;99.90
22734;DHT22;11534;51.994;5.692;2023-08-06T02:32:25;15.80;99.90
22734;DHT22;11534;51.994;5.692;2023-08-06T02:34:50;15.80;99.90
22734;DHT22;11534;51.994;5.692;2023-08-06T02:37:16;15.80;99.90
22734;DHT22;11534;51.994;5.692;2023-08-06T02:39:42;15.80;99.90
22734;DHT22;11534;51.994;5.692;2023-08-06T02:42:08;15.80;99.90
22734;DHT22;11534;51.994;5.692;2023-08-06T02:44:35;15.80;99.90
22734;DHT22;11534;51.994;5.692;2023-08-06T02:47:01;15.80;99.90
22734;DHT22;11534;51.994;5.692;2023-08-06T02:49:27;15.80;99.90
22734;DHT22;11534;51.994;5.692;2023-08-06T02:51:52;15.80;99.90
22734;DHT22;11534;51.994;5.692;2023-08-06T02:54:18;15.80;99.90
22734;DHT22;11534;51.994;5.692;2023-08-06T02:56:44;15.80;99.90
22734;DHT22;11534;51.994;5.692;2023-08-06T02:59:11;15.80;99.90
22734;DHT22;11534;51.994;5.692;2023-08-06T03:01:36;15.80;99.90
22734;DHT22;11534;51.994;5.692;2023-08-06T03:04:02;15.80;99.90
22734;DHT22;11534;51.994;5.692;2023-08-06T03:06:28;15.80;99.90
22734;DHT22;11534;51.994;5.692;2023-08-06T03:08:54;15.80;99.90
22734;DHT22;11534;51.994;5.692;2023-08-06T03:11:20;15.80;99.90
22734;DHT22;11534;51.994;5.692;2023-08-06T03:13:46;15.80;99.90
22734;DHT22;11534;51.994;5.692;2023-08-06T03:16:12;15.80;99.90
22734;DHT22;11534;51.994;5.692;2023-08-06T03:18:38;15.80;99.90
22734;DHT22;11534;51.994;5.692;2023-08-06T03:21:03;15.80;99.90
22734;DHT22;11534;51.994;5.692;2023-08-06T03:23:29;15.80;99.90
22734;DHT22;11534;51.994;5.692;2023-08-06T03:25:54;15.80;99.90
22734;DHT22;11534;51.994;5.692;2023-08-06T03:28:20;15.80;99.90
22734;DHT22;11534;51.994;5.692;2023-08-06T03:30:46;15.80;99.90
22734;DHT22;11534;51.994;5.692;2023-08-06T03:33:11;15.70;99.90
22734;DHT22;11534;51.994;5.692;2023-08-06T03:35:37;15.80;99.90
22734;DHT22;11534;51.994;5.692;2023-08-06T03:38:03;15.80;99.90
22734;DHT22;11534;51.994;5.692;2023-08-06T03:40:28;15.70;99.90
22734;DHT22;11534;51.994;5.692;2023-08-06T03:42:54;15.70;99.90
22734;DHT22;11534;51.994;5.692;2023-08-06T03:45:19;15.70;99.90
22734;DHT22;11534;51.994;5.692;2023-08-06T03:47:45;15.70;99.90
22734;DHT22;11534;51.994;5.692;2023-08-06T03:50:11;15.70;99.90
22734;DHT22;11534;51.994;5.692;2023-08-06T03:52:36;15.70;99.90
22734;DHT22;11534;51.994;5.692;2023-08-06T03:55:02;15.70;99.90
22734;DHT22;11534;51.994;5.692;2023-08-06T03:57:28;15.70;99.90
22734;DHT22;11534;51.994;5.692;2023-08-06T03:59:53;15.70;99.90
22734;DHT22;11534;51.994;5.692;2023-08-06T04:02:19;15.70;99.90
22734;DHT22;11534;51.994;5.692;2023-08-06T04:04:44;15.70;99.90
22734;DHT22;11534;51.994;5.692;2023-08-06T04:07:10;15.70;99.90
22734;DHT22;11534;51.994;5.692;2023-08-06T04:09:54;15.70;99.90
22734;DHT22;11534;51.994;5.692;2023-08-06T04:12:20;15.70;99.90
22734;DHT22;11534;51.994;5.692;2023-08-06T04:14:46;15.70;99.90
22734;DHT22;11534;51.994;5.692;2023-08-06T04:17:11;15.70;99.90
22734;DHT22;11534;51.994;5.692;2023-08-06T04:19:37;15.70;99.90
22734;DHT22;11534;51.994;5.692;2023-08-06T04:22:03;15.70;99.90
22734;DHT22;11534;51.994;5.692;2023-08-06T04:24:28;15.70;99.90
22734;DHT22;11534;51.994;5.692;2023-08-06T04:26:54;15.70;99.90
22734;DHT22;11534;51.994;5.692;2023-08-06T04:29:19;15.80;99.90
22734;DHT22;11534;51.994;5.692;2023-08-06T04:31:45;15.80;99.90
22734;DHT22;11534;51.994;5.692;2023-08-06T04:34:11;15.80;99.90
22734;DHT22;11534;51.994;5.692;2023-08-06T04:36:37;15.80;99.90
22734;DHT22;11534;51.994;5.692;2023-08-06T04:39:04;15.80;99.90
22734;DHT22;11534;51.994;5.692;2023-08-06T04:41:29;15.90;99.90
22734;DHT22;11534;51.994;5.692;2023-08-06T04:43:56;15.80;99.90
22734;DHT22;11534;51.994;5.692;2023-08-06T04:46:22;15.80;99.90
22734;DHT22;11534;51.994;5.692;2023-08-06T04:48:48;15.90;99.90
22734;DHT22;11534;51.994;5.692;2023-08-06T04:51:13;15.90;99.90
22734;DHT22;11534;51.994;5.692;2023-08-06T04:53:40;15.90;99.90
22734;DHT22;11534;51.994;5.692;2023-08-06T04:56:05;15.90;99.90
22734;DHT22;11534;51.994;5.692;2023-08-06T04:58:31;15.90;99.90
22734;DHT22;11534;51.994;5.692;2023-08-06T05:00:57;15.90;99.90
22734;DHT22;11534;51.994;5.692;2023-08-06T05:03:22;16.00;99.90
22734;DHT22;11534;51.994;5.692;2023-08-06T05:05:48;16.00;99.90
22734;DHT22;11534;51.994;5.692;2023-08-06T05:08:15;16.00;99.90
22734;DHT22;11534;51.994;5.692;2023-08-06T05:10:45;16.00;99.90
22734;DHT22;11534;51.994;5.692;2023-08-06T05:13:11;15.90;99.90
22734;DHT22;11534;51.994;5.692;2023-08-06T05:15:36;16.00;99.90
22734;DHT22;11534;51.994;5.692;2023-08-06T05:18:02;16.00;99.90
22734;DHT22;11534;51.994;5.692;2023-08-06T05:20:27;15.90;99.90
22734;DHT22;11534;51.994;5.692;2023-08-06T05:22:53;16.00;99.90
22734;DHT22;11534;51.994;5.692;2023-08-06T05:25:20;16.00;99.90
22734;DHT22;11534;51.994;5.692;2023-08-06T05:27:45;16.10;99.90
22734;DHT22;11534;51.994;5.692;2023-08-06T05:30:11;16.10;99.90
22734;DHT22;11534;51.994;5.692;2023-08-06T05:32:37;16.10;99.90
22734;DHT22;11534;51.994;5.692;2023-08-06T05:35:03;16.10;99.90
22734;DHT22;11534;51.994;5.692;2023-08-06T05:37:28;16.20;99.90
22734;DHT22;11534;51.994;5.692;2023-08-06T05:39:54;16.10;99.90
22734;DHT22;11534;51.994;5.692;2023-08-06T05:42:19;16.20;99.90
22734;DHT22;11534;51.994;5.692;2023-08-06T05:44:45;16.20;99.90
22734;DHT22;11534;51.994;5.692;2023-08-06T05:47:11;16.20;99.90
22734;DHT22;11534;51.994;5.692;2023-08-06T05:49:36;16.20;99.90
22734;DHT22;11534;51.994;5.692;2023-08-06T05:52:02;16.30;99.90
22734;DHT22;11534;51.994;5.692;2023-08-06T05:54:31;16.20;99.90
22734;DHT22;11534;51.994;5.692;2023-08-06T05:56:57;16.30;99.90
22734;DHT22;11534;51.994;5.692;2023-08-06T05:59:22;16.20;99.90
22734;DHT22;11534;51.994;5.692;2023-08-06T06:01:48;16.20;99.90
22734;DHT22;11534;51.994;5.692;2023-08-06T06:04:14;16.20;99.90
22734;DHT22;11534;51.994;5.692;2023-08-06T06:06:39;16.20;99.90
22734;DHT22;11534;51.994;5.692;2023-08-06T06:09:07;16.10;99.90
22734;DHT22;11534;51.994;5.692;2023-08-06T06:11:32;16.10;99.90
22734;DHT22;11534;51.994;5.692;2023-08-06T06:13:58;16.10;99.90
22734;DHT22;11534;51.994;5.692;2023-08-06T06:16:24;16.00;99.90
22734;DHT22;11534;51.994;5.692;2023-08-06T06:18:49;16.10;99.90
22734;DHT22;11534;51.994;5.692;2023-08-06T06:21:15;16.10;99.90
22734;DHT22;11534;51.994;5.692;2023-08-06T06:23:41;16.20;99.90
22734;DHT22;11534;51.994;5.692;2023-08-06T06:26:06;16.20;99.90
22734;DHT22;11534;51.994;5.692;2023-08-06T06:28:32;16.30;99.90
22734;DHT22;11534;51.994;5.692;2023-08-06T06:31:01;16.30;99.90
22734;DHT22;11534;51.994;5.692;2023-08-06T06:33:27;16.30;99.90
22734;DHT22;11534;51.994;5.692;2023-08-06T06:35:53;16.30;99.90
22734;DHT22;11534;51.994;5.692;2023-08-06T06:38:18;16.30;99.90
22734;DHT22;11534;51.994;5.692;2023-08-06T06:40:52;16.30;99.90
22734;DHT22;11534;51.994;5.692;2023-08-06T06:43:18;16.30;99.90
22734;DHT22;11534;51.994;5.692;2023-08-06T06:45:44;16.30;99.90
22734;DHT22;11534;51.994;5.692;2023-08-06T06:48:09;16.30;99.90
22734;DHT22;11534;51.994;5.692;2023-08-06T06:50:35;16.40;99.90
22734;DHT22;11534;51.994;5.692;2023-08-06T06:53:01;16.40;99.90
22734;DHT22;11534;51.994;5.692;2023-08-06T06:55:27;16.40;99.90
22734;DHT22;11534;51.994;5.692;2023-08-06T06:57:53;16.30;99.90
22734;DHT22;11534;51.994;5.692;2023-08-06T07:00:18;16.40;99.90
22734;DHT22;11534;51.994;5.692;2023-08-06T07:02:44;16.40;99.90
22734;DHT22;11534;51.994;5.692;2023-08-06T07:05:10;16.40;99.90
22734;DHT22;11534;51.994;5.692;2023-08-06T07:07:35;16.50;99.90
22734;DHT22;11534;51.994;5.692;2023-08-06T07:10:03;16.50;99.90
22734;DHT22;11534;51.994;5.692;2023-08-06T07:12:28;16.60;99.90
22734;DHT22;11534;51.994;5.692;2023-08-06T07:14:54;16.60;99.90
22734;DHT22;11534;51.994;5.692;2023-08-06T07:17:20;16.70;99.90
22734;DHT22;11534;51.994;5.692;2023-08-06T07:19:46;16.80;99.90
22734;DHT22;11534;51.994;5.692;2023-08-06T07:22:12;16.80;99.90
22734;DHT22;11534;51.994;5.692;2023-08-06T07:24:37;16.90;99.90
22734;DHT22;11534;51.994;5.692;2023-08-06T07:27:03;16.90;99.90
22734;DHT22;11534;51.994;5.692;2023-08-06T07:29:29;16.90;99.90
22734;DHT22;11534;51.994;5.692;2023-08-06T07:31:55;16.90;99.90
22734;DHT22;11534;51.994;5.692;2023-08-06T07:34:21;16.90;99.90
22734;DHT22;11534;51.994;5.692;2023-08-06T07:36:47;16.80;99.90
22734;DHT22;11534;51.994;5.692;2023-08-06T07:39:12;16.80;99.90
22734;DHT22;11534;51.994;5.692;2023-08-06T07:41:38;16.80;99.90
22734;DHT22;11534;51.994;5.692;2023-08-06T07:44:04;16.80;99.90
22734;DHT22;11534;51.994;5.692;2023-08-06T07:46:30;16.90;99.90
22734;DHT22;11534;51.994;5.692;2023-08-06T07:48:55;16.90;99.90
22734;DHT22;11534;51.994;5.692;2023-08-06T07:51:21;16.80;99.90
22734;DHT22;11534;51.994;5.692;2023-08-06T07:53:47;16.80;99.90
22734;DHT22;11534;51.994;5.692;2023-08-06T07:56:12;16.80;99.90
22734;DHT22;11534;51.994;5.692;2023-08-06T07:58:38;16.80;99.90
22734;DHT22;11534;51.994;5.692;2023-08-06T08:01:06;16.80;99.90
22734;DHT22;11534;51.994;5.692;2023-08-06T08:03:32;16.80;99.90
22734;DHT22;11534;51.994;5.692;2023-08-06T08:05:58;16.80;99.90
22734;DHT22;11534;51.994;5.692;2023-08-06T08:08:24;16.80;99.90
22734;DHT22;11534;51.994;5.692;2023-08-06T08:10:50;16.90;99.90
22734;DHT22;11534;51.994;5.692;2023-08-06T08:13:15;16.90;99.90
22734;DHT22;11534;51.994;5.692;2023-08-06T08:15:41;16.90;99.90
22734;DHT22;11534;51.994;5.692;2023-08-06T08:18:07;16.90;99.90
22734;DHT22;11534;51.994;5.692;2023-08-06T08:20:33;16.90;99.90
22734;DHT22;11534;51.994;5.692;2023-08-06T08:23:00;16.80;99.90
22734;DHT22;11534;51.994;5.692;2023-08-06T08:25:26;16.80;99.90
22734;DHT22;11534;51.994;5.692;2023-08-06T08:27:53;16.80;99.90
22734;DHT22;11534;51.994;5.692;2023-08-06T08:56:12;16.70;99.90
22734;DHT22;11534;51.994;5.692;2023-08-06T08:58:39;16.70;99.90
22734;DHT22;11534;51.994;5.692;2023-08-06T09:01:06;16.70;99.90
22734;DHT22;11534;51.994;5.692;2023-08-06T09:03:32;16.80;99.90
22734;DHT22;11534;51.994;5.692;2023-08-06T09:06:00;16.80;99.90
22734;DHT22;11534;51.994;5.692;2023-08-06T09:08:29;16.80;99.90
22734;DHT22;11534;51.994;5.692;2023-08-06T09:10:56;16.70;99.90
22734;DHT22;11534;51.994;5.692;2023-08-06T09:13:22;16.80;99.90
22734;DHT22;11534;51.994;5.692;2023-08-06T09:15:49;16.80;99.90
22734;DHT22;11534;51.994;5.692;2023-08-06T09:18:25;16.70;99.90
22734;DHT22;11534;51.994;5.692;2023-08-06T09:20:52;16.60;99.90
22734;DHT22;11534;51.994;5.692;2023-08-06T09:23:17;16.50;99.90
22734;DHT22;11534;51.994;5.692;2023-08-06T09:25:43;16.40;99.90
22734;DHT22;11534;51.994;5.692;2023-08-06T09:28:09;16.40;99.90
22734;DHT22;11534;51.994;5.692;2023-08-06T09:30:37;16.30;99.90
22734;DHT22;11534;51.994;5.692;2023-08-06T09:33:08;16.30;99.90
22734;DHT22;11534;51.994;5.692;2023-08-06T09:35:35;16.20;99.90
22734;DHT22;11534;51.994;5.692;2023-08-06T09:38:08;16.20;99.90
22734;DHT22;11534;51.994;5.692;2023-08-06T09:40:35;16.10;99.90
22734;DHT22;11534;51.994;5.692;2023-08-06T09:43:01;16.00;99.90
22734;DHT22;11534;51.994;5.692;2023-08-06T09:45:32;15.90;99.90
22734;DHT22;11534;51.994;5.692;2023-08-06T09:47:58;15.90;99.90
22734;DHT22;11534;51.994;5.692;2023-08-06T09:50:29;15.90;99.90
22734;DHT22;11534;51.994;5.692;2023-08-06T09:52:56;15.80;99.90
22734;DHT22;11534;51.994;5.692;2023-08-06T09:55:23;15.80;99.90
22734;DHT22;11534;51.994;5.692;2023-08-06T09:57:51;15.80;99.90
22734;DHT22;11534;51.994;5.692;2023-08-06T10:00:17;15.70;99.90
22734;DHT22;11534;51.994;5.692;2023-08-06T10:02:43;15.70;99.90
22734;DHT22;11534;51.994;5.692;2023-08-06T10:05:09;15.70;99.90
22734;DHT22;11534;51.994;5.692;2023-08-06T10:07:36;15.60;99.90
22734;DHT22;11534;51.994;5.692;2023-08-06T10:10:02;15.60;99.90
22734;DHT22;11534;51.994;5.692;2023-08-06T10:12:38;15.60;99.90
22734;DHT22;11534;51.994;5.692;2023-08-06T10:15:08;15.50;99.90
22734;DHT22;11534;51.994;5.692;2023-08-06T10:17:35;15.50;99.90
22734;DHT22;11534;51.994;5.692;2023-08-06T10:20:04;15.50;99.90
22734;DHT22;11534;51.994;5.692;2023-08-06T10:22:32;15.50;99.90
22734;DHT22;11534;51.994;5.692;2023-08-06T10:25:00;15.50;99.90
22734;DHT22;11534;51.994;5.692;2023-08-06T10:30:30;15.50;99.90
22734;DHT22;11534;51.994;5.692;2023-08-06T10:33:02;15.50;99.90
22734;DHT22;11534;51.994;5.692;2023-08-06T10:35:36;15.50;99.90
22734;DHT22;11534;51.994;5.692;2023-08-06T10:38:11;15.50;99.90
22734;DHT22;11534;51.994;5.692;2023-08-06T10:43:32;15.60;99.90
22734;DHT22;11534;51.994;5.692;2023-08-06T10:46:00;15.60;99.90
22734;DHT22;11534;51.994;5.692;2023-08-06T10:48:36;15.60;99.90
22734;DHT22;11534;51.994;5.692;2023-08-06T10:51:03;15.50;99.90
22734;DHT22;11534;51.994;5.692;2023-08-06T10:53:30;15.50;99.90
22734;DHT22;11534;51.994;5.692;2023-08-06T10:55:56;15.50;99.90
22734;DHT22;11534;51.994;5.692;2023-08-06T10:58:22;15.50;99.90
22734;DHT22;11534;51.994;5.692;2023-08-06T11:00:48;15.50;99.90
22734;DHT22;11534;51.994;5.692;2023-08-06T11:03:14;15.60;99.90
22734;DHT22;11534;51.994;5.692;2023-08-06T11:05:40;15.60;99.90
22734;DHT22;11534;51.994;5.692;2023-08-06T11:08:06;15.60;99.90
22734;DHT22;11534;51.994;5.692;2023-08-06T11:10:34;15.60;99.90
22734;DHT22;11534;51.994;5.692;2023-08-06T11:13:03;15.60;99.90
22734;DHT22;11534;51.994;5.692;2023-08-06T11:15:30;15.60;99.90
22734;DHT22;11534;51.994;5.692;2023-08-06T11:17:56;15.60;99.90
22734;DHT22;11534;51.994;5.692;2023-08-06T11:20:22;15.50;99.90
22734;DHT22;11534;51.994;5.692;2023-08-06T11:22:48;15.50;99.90
22734;DHT22;11534;51.994;5.692;2023-08-06T11:25:14;15.50;99.90
22734;DHT22;11534;51.994;5.692;2023-08-06T11:27:39;15.50;99.90
22734;DHT22;11534;51.994;5.692;2023-08-06T11:30:05;15.60;99.90
22734;DHT22;11534;51.994;5.692;2023-08-06T11:32:31;15.60;99.90
22734;DHT22;11534;51.994;5.692;2023-08-06T11:34:58;15.60;99.90
22734;DHT22;11534;51.994;5.692;2023-08-06T11:37:24;15.70;99.90
22734;DHT22;11534;51.994;5.692;2023-08-06T11:39:50;15.70;99.90
22734;DHT22;11534;51.994;5.692;2023-08-06T11:42:16;15.60;99.90
22734;DHT22;11534;51.994;5.692;2023-08-06T11:44:42;15.70;99.90
22734;DHT22;11534;51.994;5.692;2023-08-06T11:47:16;15.70;99.90
22734;DHT22;11534;51.994;5.692;2023-08-06T11:49:47;15.70;99.90
22734;DHT22;11534;51.994;5.692;2023-08-06T11:52:21;15.60;99.90
22734;DHT22;11534;51.994;5.692;2023-08-06T11:57:25;15.70;99.90
22734;DHT22;11534;51.994;5.692;2023-08-06T11:59:51;15.70;99.90
22734;DHT22;11534;51.994;5.692;2023-08-06T12:02:16;15.60;99.90
22734;DHT22;11534;51.994;5.692;2023-08-06T12:07:32;15.70;99.90
22734;DHT22;11534;51.994;5.692;2023-08-06T12:10:01;15.70;99.90
22734;DHT22;11534;51.994;5.692;2023-08-06T12:12:27;15.70;99.90
22734;DHT22;11534;51.994;5.692;2023-08-06T12:14:54;15.70;99.90
22734;DHT22;11534;51.994;5.692;2023-08-06T12:17:20;15.70;99.90
22734;DHT22;11534;51.994;5.692;2023-08-06T12:19:46;15.60;99.90
22734;DHT22;11534;51.994;5.692;2023-08-06T12:22:15;15.60;99.90
22734;DHT22;11534;51.994;5.692;2023-08-06T12:24:42;15.60;99.90
22734;DHT22;11534;51.994;5.692;2023-08-06T12:27:08;15.60;99.90
22734;DHT22;11534;51.994;5.692;2023-08-06T12:29:34;15.60;99.90
22734;DHT22;11534;51.994;5.692;2023-08-06T12:31:59;15.60;99.90
22734;DHT22;11534;51.994;5.692;2023-08-06T12:34:25;15.60;99.90
22734;DHT22;11534;51.994;5.692;2023-08-06T12:36:50;15.60;99.90
22734;DHT22;11534;51.994;5.692;2023-08-06T12:39:16;15.60;99.90
22734;DHT22;11534;51.994;5.692;2023-08-06T12:41:42;15.70;99.90
22734;DHT22;11534;51.994;5.692;2023-08-06T12:44:09;15.60;99.90
22734;DHT22;11534;51.994;5.692;2023-08-06T12:46:34;15.60;99.90
22734;DHT22;11534;51.994;5.692;2023-08-06T12:49:00;15.60;99.90
22734;DHT22;11534;51.994;5.692;2023-08-06T12:51:26;15.60;99.90
22734;DHT22;11534;51.994;5.692;2023-08-06T12:53:51;15.60;99.90
22734;DHT22;11534;51.994;5.692;2023-08-06T12:56:17;15.60;99.90
22734;DHT22;11534;51.994;5.692;2023-08-06T12:58:42;15.60;99.90
22734;DHT22;11534;51.994;5.692;2023-08-06T13:01:08;15.70;99.90
22734;DHT22;11534;51.994;5.692;2023-08-06T13:03:34;15.70;99.90
22734;DHT22;11534;51.994;5.692;2023-08-06T13:05:59;15.80;99.90
22734;DHT22;11534;51.994;5.692;2023-08-06T13:08:25;15.80;99.90
22734;DHT22;11534;51.994;5.692;2023-08-06T13:10:51;15.90;99.90
22734;DHT22;11534;51.994;5.692;2023-08-06T13:13:16;15.90;99.90
22734;DHT22;11534;51.994;5.692;2023-08-06T13:15:42;15.90;99.90
22734;DHT22;11534;51.994;5.692;2023-08-06T13:18:08;15.90;99.90
22734;DHT22;11534;51.994;5.692;2023-08-06T13:20:33;16.00;99.90
22734;DHT22;11534;51.994;5.692;2023-08-06T13:22:59;16.10;99.90
22734;DHT22;11534;51.994;5.692;2023-08-06T13:25:27;16.10;99.90
22734;DHT22;11534;51.994;5.692;2023-08-06T13:27:54;16.10;99.90
22734;DHT22;11534;51.994;5.692;2023-08-06T13:30:20;16.10;99.90
22734;DHT22;11534;51.994;5.692;2023-08-06T13:32:46;16.20;99.90
22734;DHT22;11534;51.994;5.692;2023-08-06T13:35:12;16.20;99.90
22734;DHT22;11534;51.994;5.692;2023-08-06T13:37:38;16.10;99.90
22734;DHT22;11534;51.994;5.692;2023-08-06T13:40:04;16.20;99.90
22734;DHT22;11534;51.994;5.692;2023-08-06T13:42:29;16.20;99.90
22734;DHT22;11534;51.994;5.692;2023-08-06T13:44:57;16.20;99.90
22734;DHT22;11534;51.994;5.692;2023-08-06T13:47:28;16.20;99.90
22734;DHT22;11534;51.994;5.692;2023-08-06T13:49:53;16.20;99.90
22734;DHT22;11534;51.994;5.692;2023-08-06T13:52:20;16.20;99.90
22734;DHT22;11534;51.994;5.692;2023-08-06T13:54:46;16.20;99.90
22734;DHT22;11534;51.994;5.692;2023-08-06T13:57:11;16.10;99.90
22734;DHT22;11534;51.994;5.692;2023-08-06T13:59:37;16.20;99.90
22734;DHT22;11534;51.994;5.692;2023-08-06T14:02:03;16.10;99.90
22734;DHT22;11534;51.994;5.692;2023-08-06T14:04:29;16.20;99.90
22734;DHT22;11534;51.994;5.692;2023-08-06T14:06:55;16.20;99.90
22734;DHT22;11534;51.994;5.692;2023-08-06T14:09:20;16.10;99.90
22734;DHT22;11534;51.994;5.692;2023-08-06T14:11:46;16.10;99.90
22734;DHT22;11534;51.994;5.692;2023-08-06T14:14:12;16.10;99.90
22734;DHT22;11534;51.994;5.692;2023-08-06T14:16:37;16.10;99.90
22734;DHT22;11534;51.994;5.692;2023-08-06T14:19:03;16.10;99.90
22734;DHT22;11534;51.994;5.692;2023-08-06T14:21:29;16.10;99.90
22734;DHT22;11534;51.994;5.692;2023-08-06T14:23:55;16.10;99.90
22734;DHT22;11534;51.994;5.692;2023-08-06T14:26:20;16.10;99.90
22734;DHT22;11534;51.994;5.692;2023-08-06T14:28:46;16.10;99.90
22734;DHT22;11534;51.994;5.692;2023-08-06T14:31:12;16.10;99.90
22734;DHT22;11534;51.994;5.692;2023-08-06T14:33:37;16.10;99.90
22734;DHT22;11534;51.994;5.692;2023-08-06T14:36:03;16.10;99.90
22734;DHT22;11534;51.994;5.692;2023-08-06T14:38:29;16.10;99.90
22734;DHT22;11534;51.994;5.692;2023-08-06T14:40:54;16.20;99.90
22734;DHT22;11534;51.994;5.692;2023-08-06T14:43:20;16.20;99.90
22734;DHT22;11534;51.994;5.692;2023-08-06T14:45:46;16.10;99.90
22734;DHT22;11534;51.994;5.692;2023-08-06T14:48:11;16.10;99.90
22734;DHT22;11534;51.994;5.692;2023-08-06T14:50:37;16.10;99.90
22734;DHT22;11534;51.994;5.692;2023-08-06T14:53:04;16.10;99.90
22734;DHT22;11534;51.994;5.692;2023-08-06T14:55:31;16.10;99.90
22734;DHT22;11534;51.994;5.692;2023-08-06T14:57:57;16.10;99.90
22734;DHT22;11534;51.994;5.692;2023-08-06T15:00:23;16.10;99.90
22734;DHT22;11534;51.994;5.692;2023-08-06T15:02:48;16.10;99.90
22734;DHT22;11534;51.994;5.692;2023-08-06T15:05:14;16.20;99.90
22734;DHT22;11534;51.994;5.692;2023-08-06T15:07:40;16.20;99.90
22734;DHT22;11534;51.994;5.692;2023-08-06T15:10:06;16.20;99.90
22734;DHT22;11534;51.994;5.692;2023-08-06T15:12:32;16.20;99.90
22734;DHT22;11534;51.994;5.692;2023-08-06T15:14:58;16.20;99.90
22734;DHT22;11534;51.994;5.692;2023-08-06T15:17:26;16.30;99.90
22734;DHT22;11534;51.994;5.692;2023-08-06T15:19:52;16.30;99.90
22734;DHT22;11534;51.994;5.692;2023-08-06T15:22:17;16.30;99.90
22734;DHT22;11534;51.994;5.692;2023-08-06T15:24:43;16.30;99.90
22734;DHT22;11534;51.994;5.692;2023-08-06T15:27:09;16.30;99.90
22734;DHT22;11534;51.994;5.692;2023-08-06T15:29:35;16.30;99.90
22734;DHT22;11534;51.994;5.692;2023-08-06T15:32:01;16.30;99.90
22734;DHT22;11534;51.994;5.692;2023-08-06T15:34:27;16.20;99.90
22734;DHT22;11534;51.994;5.692;2023-08-06T15:36:53;16.30;99.90
22734;DHT22;11534;51.994;5.692;2023-08-06T15:39:20;16.30;99.90
22734;DHT22;11534;51.994;5.692;2023-08-06T15:41:45;16.30;99.90
22734;DHT22;11534;51.994;5.692;2023-08-06T15:44:11;16.20;99.90
22734;DHT22;11534;51.994;5.692;2023-08-06T15:46:37;16.20;99.90
22734;DHT22;11534;51.994;5.692;2023-08-06T15:49:03;16.10;99.90
22734;DHT22;11534;51.994;5.692;2023-08-06T15:51:30;16.10;99.90
22734;DHT22;11534;51.994;5.692;2023-08-06T15:53:56;16.00;99.90
22734;DHT22;11534;51.994;5.692;2023-08-06T15:56:22;16.00;99.90
22734;DHT22;11534;51.994;5.692;2023-08-06T15:58:47;16.00;99.90
22734;DHT22;11534;51.994;5.692;2023-08-06T16:01:13;16.00;99.90
22734;DHT22;11534;51.994;5.692;2023-08-06T16:03:40;15.90;99.90